• Join FlightAware (Why Join?)
  • Login
  • US Flag 
05:47PM EST


 

Airport Tracker/Info


-or-


 

Live Flight TrackerFlight Track Log ✈ C-FWOA ✈ 08-Sep-2013 ✈ CYPK - CYPK

Flight Track Log - Related Links

Times and Time Zones

All times are in EDT time to prevent confusion due to time zone crossing. See the C-FWOA flight status page for this flight to view local times or setup timezone preferences in your user account.

Time Position Orientation Groundspeed Altitude Reporting Facility
EDT Latitude Longitude Course Direction KTS MPH feet Rate Location/Type
01:53PM 49.2000 -122.7500 66° East 110 127 800  Level Vancouver Center
01:54PM 49.1833 -122.8000 243° Southwest 120 138 1,500 600 Climbing Vancouver Center
01:55PM 49.1833 -122.7500 90° East 120 138 2,000 360 Climbing Vancouver Center
01:56PM 49.2000 -122.7000 63° Northeast 150 173 2,300 420 Climbing Vancouver Center
01:57PM 49.1833 -122.6833 147° Southeast 130 150 2,900 360 Climbing Vancouver Center
01:58PM 49.2161 -122.7100 66° East  Level Estimated
01:58PM 49.1333 -122.6833 180° South 140 161 3,100  Level Vancouver Center
01:59PM 49.2161 -122.7100 66° East  Level Estimated
01:59PM 49.1000 -122.6833 180° South 150 173 3,100  Level Vancouver Center
02:00PM 49.0500 -122.6833 180° South 150 173 3,300 360 Climbing Vancouver Center
02:01PM 49.0167 -122.6500 147° Southeast 140 161 3,900 600 Climbing Vancouver Center
02:02PM 48.9833 -122.6333 162° South 130 150 4,500 600 Climbing Vancouver Center
02:03PM 48.9500 -122.6000 147° Southeast 130 150 5,100 600 Climbing Vancouver Center
02:04PM 48.9333 -122.5500 117° Southeast 140 161 5,700 540 Climbing Vancouver Center
02:05PM 48.9500 -122.5000 63° Northeast 140 161 6,200 540 Climbing Vancouver Center
02:06PM 48.9833 -122.4500 45° Northeast 140 161 6,800 540 Climbing Vancouver Center
02:07PM 49.0000 -122.4000 63° Northeast 150 173 7,300 480 Climbing Vancouver Center
02:08PM 49.0167 -122.3500 63° Northeast 150 173 7,800 540 Climbing Vancouver Center
02:09PM 49.0500 -122.3000 45° Northeast 150 173 8,400 540 Climbing Vancouver Center
02:10PM 49.0667 -122.2500 63° Northeast 150 173 8,900 600 Climbing Vancouver Center
02:11PM 49.0833 -122.1667 73° East 150 173 9,700 840 Climbing Vancouver Center
02:12PM 49.1000 -122.1500 33° Northeast 140 161 10,600 660 Climbing Vancouver Center
02:13PM 49.1333 -122.0833 53° Northeast 130 150 11,100 240 Climbing Vancouver Center
02:14PM 49.1333 -122.0333 90° East 150 173 11,100  Level Vancouver Center
02:15PM 49.1500 -121.9667 69° East 160 184 11,100  Level Vancouver Center
02:16PM 49.1833 -121.9167 44° Northeast 160 184 11,100  Level Vancouver Center
02:17PM 49.2000 -121.8500 69° East 160 184 11,100  Level Vancouver Center
02:18PM 49.2167 -121.7833 69° East 160 184 11,100  Level Vancouver Center
02:19PM 49.2500 -121.7333 44° Northeast 160 184 11,100  Level Vancouver Center
02:20PM 49.2667 -121.6833 63° Northeast 160 184 11,100  Level Vancouver Center
02:21PM 49.3000 -121.6000 58° Northeast 160 184 11,100  Level Vancouver Center
02:22PM 49.3167 -121.5500 63° Northeast 160 184 11,100  Level Vancouver Center
02:23PM 49.3333 -121.5000 63° Northeast 160 184 11,100  Level Vancouver Center
02:24PM 49.3667 -121.4167 58° Northeast 160 184 11,100  Level Vancouver Center
02:25PM 49.3833 -121.3667 63° Northeast 170 196 11,100  Level Vancouver Center
02:26PM 49.4167 -121.3167 44° Northeast 170 196 11,100  Level Vancouver Center
02:28PM 49.4500 -121.1833 69° East 170 196 11,100  Level Vancouver Center
02:29PM 49.4667 -121.1000 73° East 170 196 11,100  Level Vancouver Center
02:30PM 49.4833 -121.0500 63° Northeast 170 196 11,100  Level Vancouver Center
02:31PM 49.5167 -121.0000 44° Northeast 160 184 11,100  Level Vancouver Center
02:32PM 49.5333 -120.9167 73° East 160 184 11,100  Level Vancouver Center
02:33PM 49.5500 -120.8667 63° Northeast 160 184 11,100  Level Vancouver Center
02:34PM 49.5833 -120.8167 44° Northeast 170 196 11,100  Level Vancouver Center
02:35PM 49.6000 -120.7333 73° East 160 184 11,100  Level Vancouver Center
02:36PM 49.6167 -120.6833 63° Northeast 160 184 11,100  Level Vancouver Center
02:37PM 49.6500 -120.6000 58° Northeast 170 196 11,100  Level Vancouver Center
02:38PM 49.6667 -120.5500 63° Northeast 170 196 11,100  Level Vancouver Center
02:39PM 49.6833 -120.5000 63° Northeast 170 196 11,100 -60 Level Vancouver Center
02:40PM 49.7000 -120.4167 73° East 170 196 11,000 -60 Descending Vancouver Center
02:41PM 49.7167 -120.3667 63° Northeast 170 196 11,000  Level Vancouver Center
02:42PM 49.7500 -120.2833 58° Northeast 170 196 11,000  Level Vancouver Center
02:43PM 49.7667 -120.2333 63° Northeast 170 196 11,000  Level Vancouver Center
02:44PM 49.8000 -120.1500 58° Northeast 170 196 11,000  Level Vancouver Center
02:45PM 49.8167 -120.1000 63° Northeast 170 196 11,000  Level Vancouver Center
02:46PM 49.8500 -120.0167 58° Northeast 170 196 11,000  Level Vancouver Center
02:47PM 49.8500 -119.9667 90° East 170 196 11,000  Level Vancouver Center
02:48PM 49.8667 -119.9167 63° Northeast 170 196 11,000  Level Vancouver Center
02:49PM 49.9000 -119.8333 58° Northeast 170 196 11,000  Level Vancouver Center
02:50PM 49.9167 -119.7833 63° Northeast 170 196 11,000  Level Vancouver Center
02:51PM 49.9500 -119.7000 58° Northeast 170 196 11,000  Level Vancouver Center
02:52PM 49.9667 -119.6500 63° Northeast 170 196 11,000  Level Vancouver Center
02:53PM 49.9833 -119.5667 73° East 170 196 11,000  Level Vancouver Center
02:54PM 50.0167 -119.5167 44° Northeast 170 196 11,100 240 Climbing Vancouver Center
02:55PM 50.0167 -119.4500 90° East 160 184 11,500 360 Climbing Vancouver Center
02:56PM 49.9833 -119.4167 147° Southeast 160 184 11,900 240 Climbing Vancouver Center
02:57PM 49.9333 -119.4333 192° South 180 207 12,000  Climbing Vancouver Center
02:58PM 49.8833 -119.4500 192° South 190 219 12,000  Level Vancouver Center
02:59PM 49.8333 -119.4667 192° South 190 219 12,000  Level Vancouver Center
03:00PM 49.7667 -119.4833 189° South 190 219 12,000  Level Vancouver Center
03:01PM 49.7333 -119.5167 213° Southwest 190 219 12,000  Level Vancouver Center
03:02PM 49.6833 -119.5167 180° South 190 219 12,000  Level Vancouver Center
03:03PM 49.6333 -119.5500 203° Southwest 190 219 12,000  Level Vancouver Center
03:04PM 49.5833 -119.5500 180° South 190 219 12,000  Level Vancouver Center
03:05PM 49.5333 -119.5833 203° Southwest 190 219 12,000  Level Vancouver Center
03:06PM 49.4833 -119.6167 203° Southwest 190 219 12,000  Level Vancouver Center
03:07PM 49.4500 -119.6667 224° Southwest 180 207 12,000  Level Vancouver Center
03:08PM 49.4500 -119.7333 270° West 170 196 12,000  Level Vancouver Center
03:09PM 49.4333 -119.8167 253° West 170 196 12,000  Level Vancouver Center
03:10PM 49.4333 -119.9000 270° West 170 196 12,000  Level Vancouver Center
03:11PM 49.4167 -119.9667 249° West 170 196 12,000  Level Vancouver Center
03:12PM 49.4167 -120.0333 270° West 160 184 12,000  Level Vancouver Center
03:13PM 49.4000 -120.1000 249° West 170 196 12,000  Level Vancouver Center
03:14PM 49.4000 -120.1833 270° West 170 196 12,000  Level Vancouver Center
03:15PM 49.3833 -120.2333 243° Southwest 170 196 12,000  Level Vancouver Center
03:16PM 49.3667 -120.3167 253° West 170 196 12,000  Level Vancouver Center
03:17PM 49.3500 -120.3833 249° West 170 196 12,000  Level Vancouver Center
03:18PM 49.3500 -120.4667 270° West 160 184 12,000  Level Vancouver Center
03:19PM 49.3500 -120.5167 270° West 170 196 12,100  Climbing Vancouver Center
03:20PM 49.3667 -120.6000 287° West 170 196 12,100  Level Vancouver Center
03:21PM 49.3500 -120.6667 249° West 170 196 12,100  Level Vancouver Center
03:22PM 49.3500 -120.7500 270° West 160 184 12,100  Level Vancouver Center
03:23PM 49.3333 -120.8000 243° Southwest 170 196 12,100  Level Vancouver Center
03:24PM 49.3333 -120.8833 270° West 170 196 12,100  Level Vancouver Center
03:25PM 49.3333 -120.9500 270° West 180 207 12,100  Level Vancouver Center
03:26PM 49.3333 -121.0333 270° West 170 196 12,100  Level Vancouver Center
03:27PM 49.3167 -121.1167 253° West 180 207 12,100 -60 Level Vancouver Center
03:28PM 49.3333 -121.1833 291° West 180 207 12,000 -360 Descending Vancouver Center
03:29PM 49.3333 -121.2667 270° West 190 219 11,400 -600 Descending Vancouver Center
03:30PM 49.3333 -121.3333 270° West 180 207 10,900 -600 Descending Vancouver Center
03:31PM 49.3500 -121.4167 287° West 180 207 10,300 -720 Descending Vancouver Center
03:32PM 49.3333 -121.5000 253° West 180 207 9,500 -780 Descending Vancouver Center
03:33PM 49.3000 -121.5500 224° Southwest 180 207 8,800 -780 Descending Vancouver Center
03:34PM 49.2833 -121.6167 249° West 180 207 8,000 -780 Descending Vancouver Center
03:35PM 49.2500 -121.6833 233° Southwest 180 207 7,300 -720 Descending Vancouver Center
03:36PM 49.2167 -121.7500 233° Southwest 180 207 6,600 -660 Descending Vancouver Center
03:37PM 49.2000 -121.8000 243° Southwest 180 207 6,100 -540 Descending Vancouver Center
03:38PM 49.1833 -121.8833 253° West 170 196 5,600 -540 Descending Vancouver Center
03:39PM 49.1667 -121.9667 253° West 170 196 5,100 -540 Descending Vancouver Center
03:40PM 49.1500 -122.0167 243° Southwest 170 196 4,600 -540 Descending Vancouver Center
03:41PM 49.1500 -122.0833 270° West 170 196 4,100 -540 Descending Vancouver Center
03:42PM 49.1500 -122.1667 270° West 170 196 3,600 -480 Descending Vancouver Center
03:43PM 49.1333 -122.2167 243° Southwest 170 196 3,200 -480 Descending Vancouver Center
03:44PM 49.1167 -122.3000 253° West 170 196 2,700 -480 Descending Vancouver Center
03:45PM 49.1333 -122.3667 291° West 170 196 2,300 -360 Descending Vancouver Center
03:46PM 49.1500 -122.4167 297° West 170 196 2,000 -360 Descending Vancouver Center
03:47PM 49.1500 -122.5000 270° West 170 196 1,600 -420 Descending Vancouver Center
03:48PM 49.1667 -122.5667 291° West 160 184 1,200 -240 Descending Vancouver Center
03:49PM 49.1833 -122.6167 297° West 150 173 1,200  Level Vancouver Center